Time;durP1;ratioP1;P1;durP2;ratioP2;P2;SDS_P1;SDS_P2;PMS_P1;PMS_P2;Temp;Humidity;BMP_temperature;BMP_pressure;BME280_temperature;BME280_humidity;BME280_pressure;Samples;Min_cycle;Max_cycle;Signal;HPM_P1;HPM_P2
2022/05/25 00:00:37;;;;;;;11.05;6.68;;;;;;;9.20;100.00;101075.16;5274142;28;20109;-66
2022/05/25 00:03:09;;;;;;;8.80;6.93;;;;;;;9.14;100.00;101080.91;5277774;28;20021;-66
2022/05/25 00:05:40;;;;;;;9.18;7.30;;;;;;;9.17;100.00;101073.59;5274642;28;20523;-66
2022/05/25 00:08:13;;;;;;;9.77;7.55;;;;;;;9.11;100.00;101076.66;5281032;28;20023;-66
2022/05/25 00:10:44;;;;;;;10.07;8.05;;;;;;;9.14;100.00;101076.44;5277946;28;20032;-66
2022/05/25 00:13:16;;;;;;;10.93;7.18;;;;;;;8.99;100.00;101080.13;5278630;28;20440;-66
2022/05/25 00:15:47;;;;;;;10.27;7.65;;;;;;;9.13;100.00;101082.72;5278477;28;20097;-66
2022/05/25 00:18:19;;;;;;;11.45;8.55;;;;;;;9.09;100.00;101081.22;5280442;28;20067;-66
2022/05/25 00:20:50;;;;;;;13.23;8.63;;;;;;;9.15;100.00;101079.97;5278871;28;20346;-66
2022/05/25 00:23:21;;;;;;;11.27;8.57;;;;;;;9.00;100.00;101079.19;5274098;28;20044;-66
2022/05/25 00:25:53;;;;;;;10.57;8.85;;;;;;;9.12;100.00;101078.34;5278545;28;20036;-66
2022/05/25 00:28:25;;;;;;;11.55;8.82;;;;;;;9.05;100.00;101081.53;5279866;28;20028;-67
2022/05/25 00:31:17;;;;;;;12.32;9.10;;;;;;;9.03;100.00;101085.16;5278583;28;20039;-67
2022/05/25 00:33:48;;;;;;;10.20;8.85;;;;;;;8.96;100.00;101085.66;5262939;28;20077;-67
2022/05/25 00:36:20;;;;;;;11.27;8.63;;;;;;;9.01;100.00;101083.53;5278605;28;20067;-67
2022/05/25 00:38:51;;;;;;;11.68;9.07;;;;;;;8.99;100.00;101082.78;5279937;28;20035;-67
2022/05/25 00:41:24;;;;;;;13.15;9.48;;;;;;;8.96;100.00;101080.34;5278913;28;20286;-67
2022/05/25 00:43:57;;;;;;;11.65;8.75;;;;;;;9.05;100.00;101092.16;5278962;28;20032;-67
2022/05/25 00:46:29;;;;;;;14.30;10.13;;;;;;;8.98;100.00;101087.25;5280537;28;20380;-67
2022/05/25 00:49:12;;;;;;;11.68;9.55;;;;;;;8.94;100.00;101092.88;5275971;28;20390;-67
2022/05/25 00:51:58;;;;;;;10.82;8.85;;;;;;;8.83;100.00;101094.44;5289845;28;20036;-67
2022/05/25 00:54:39;;;;;;;11.93;9.52;;;;;;;8.88;100.00;101101.25;5270684;28;20271;-67
2022/05/25 00:57:18;;;;;;;12.85;9.77;;;;;;;8.80;100.00;101102.63;5271695;28;20036;-67
2022/05/25 00:59:57;;;;;;;13.93;10.85;;;;;;;8.74;100.00;101100.34;5279572;28;20621;-67
2022/05/25 01:02:30;;;;;;;12.20;9.95;;;;;;;8.71;100.00;101100.56;5278015;28;20036;-67
2022/05/25 01:05:01;;;;;;;12.20;10.07;;;;;;;8.61;100.00;101100.31;5278477;28;20438;-67
2022/05/25 01:07:51;;;;;;;12.32;10.48;;;;;;;8.66;100.00;101101.81;5279290;28;20032;-67
2022/05/25 01:10:57;;;;;;;12.30;9.88;;;;;;;8.71;100.00;101111.19;5279885;28;20417;-67
2022/05/25 01:13:37;;;;;;;13.88;10.80;;;;;;;8.68;100.00;101106.06;5280011;28;20090;-67
2022/05/25 01:16:25;;;;;;;13.55;10.38;;;;;;;8.63;100.00;101111.69;5277902;28;20470;-67
2022/05/25 01:19:40;;;;;;;15.52;9.90;;;;;;;8.64;100.00;101101.91;5276881;28;20532;-67
2022/05/25 01:22:39;;;;;;;13.75;10.38;;;;;;;8.57;100.00;101105.91;5269607;28;20078;-67
2022/05/25 01:25:28;;;;;;;13.65;10.30;;;;;;;8.54;100.00;101109.63;5279433;28;20498;-67
2022/05/25 01:28:27;;;;;;;11.40;10.05;;;;;;;8.49;100.00;101109.03;5279076;28;20020;-67
2022/05/25 01:31:01;;;;;;;14.18;10.68;;;;;;;8.52;100.00;101119.50;5277809;28;20029;-67
2022/05/25 01:33:42;;;;;;;;;;;;;;;8.53;100.00;101107.91;5278351;28;20479;-67
2022/05/25 01:36:29;;;;;;;13.95;10.80;;;;;;;8.52;100.00;101108.84;5278928;28;19916;-67
2022/05/25 01:39:07;;;;;;;13.25;10.70;;;;;;;8.38;100.00;101109.72;5279416;28;20394;-67
2022/05/25 01:41:52;;;;;;;14.38;10.93;;;;;;;8.38;100.00;101115.03;5278724;28;20024;-67
2022/05/25 01:44:29;;;;;;;15.45;11.77;;;;;;;8.47;100.00;101113.59;5278302;28;20536;-67
2022/05/25 01:47:10;;;;;;;14.57;12.00;;;;;;;8.41;100.00;101117.50;5291211;28;20048;-67
2022/05/25 01:49:47;;;;;;;14.60;11.57;;;;;;;8.27;100.00;101122.81;5272893;28;20027;-67
2022/05/25 01:52:24;;;;;;;14.13;11.82;;;;;;;8.28;100.00;101123.66;5265243;28;20455;-67
2022/05/25 01:55:02;;;;;;;16.65;11.25;;;;;;;8.23;100.00;101122.16;5276123;28;20055;-67
2022/05/25 01:57:37;;;;;;;13.57;10.77;;;;;;;8.16;100.00;101122.63;5276202;28;20033;-67
2022/05/25 02:00:09;;;;;;;16.25;11.60;;;;;;;8.33;100.00;101122.44;5270732;28;20035;-67
2022/05/25 02:05:30;;;;;;;16.27;12.05;;;;;;;8.35;100.00;101120.53;5266299;28;20413;-67
2022/05/25 02:08:18;;;;;;;15.50;11.90;;;;;;;8.25;100.00;101120.25;5277684;28;20029;-67
2022/05/25 02:11:33;;;;;;;15.27;12.32;;;;;;;8.30;100.00;101122.59;5276309;28;20462;-67
2022/05/25 02:14:36;;;;;;;15.70;11.43;;;;;;;8.22;100.00;101132.88;5270493;28;20482;-67
2022/05/25 02:17:38;;;;;;;15.70;11.85;;;;;;;8.25;100.00;101127.38;5277231;28;20049;-67
2022/05/25 02:20:41;;;;;;;15.25;11.68;;;;;;;8.23;100.00;101130.13;5278082;28;20103;-67
2022/05/25 02:23:19;;;;;;;17.02;13.10;;;;;;;8.30;100.00;101127.94;5277850;28;20095;-67
2022/05/25 02:26:04;;;;;;;17.95;12.35;;;;;;;8.27;100.00;101124.63;5276674;28;20482;-67
2022/05/25 02:28:42;;;;;;;16.55;13.27;;;;;;;8.32;100.00;101127.84;5277498;28;20433;-67
2022/05/25 02:31:20;;;;;;;16.85;12.05;;;;;;;8.29;100.00;101134.22;5278491;28;20449;-67
2022/05/25 02:33:57;;;;;;;16.23;11.93;;;;;;;8.17;100.00;101133.16;5275117;28;20112;-67
2022/05/25 02:36:33;;;;;;;15.80;11.82;;;;;;;8.19;100.00;101133.94;5277201;28;20036;-67
2022/05/25 02:39:06;;;;;;;14.18;11.23;;;;;;;8.21;100.00;101144.47;5277240;28;20595;-67
2022/05/25 02:41:47;;;;;;;14.47;12.53;;;;;;;8.20;100.00;101134.78;5265419;28;20102;-67
2022/05/25 02:44:18;;;;;;;14.63;11.52;;;;;;;8.13;100.00;101141.41;5272930;28;20131;-67
2022/05/25 02:46:50;;;;;;;14.90;11.30;;;;;;;8.08;100.00;101147.03;5276088;28;20032;-67
2022/05/25 02:49:21;;;;;;;15.27;11.43;;;;;;;8.07;100.00;101153.28;5272180;28;20082;-67
2022/05/25 02:51:52;;;;;;;14.30;11.30;;;;;;;8.04;100.00;101148.16;5277330;28;20169;-67
2022/05/25 02:54:24;;;;;;;14.77;11.32;;;;;;;8.01;100.00;101151.00;5276606;28;20457;-67
2022/05/25 02:56:55;;;;;;;15.18;10.77;;;;;;;7.99;100.00;101153.72;5277235;28;20028;-67
2022/05/25 02:59:27;;;;;;;12.55;10.25;;;;;;;8.02;100.00;101156.22;5277775;28;20060;-67
2022/05/25 03:01:59;;;;;;;14.20;10.70;;;;;;;8.07;100.00;101150.63;5270467;28;20028;-67
2022/05/25 03:04:31;;;;;;;15.68;10.32;;;;;;;7.91;100.00;101153.34;5276832;28;20539;-67
2022/05/25 03:07:04;;;;;;;13.60;9.52;;;;;;;8.01;100.00;101161.63;5277177;28;20454;-67
2022/05/25 03:09:37;;;;;;;16.58;10.13;;;;;;;8.04;100.00;101149.00;5274155;28;20036;-67
2022/05/25 03:12:08;;;;;;;13.40;9.90;;;;;;;8.03;100.00;101162.38;5277671;28;20074;-67
2022/05/25 03:14:40;;;;;;;14.95;9.80;;;;;;;7.90;100.00;101164.94;5276534;28;20529;-67
2022/05/25 03:17:14;;;;;;;16.13;10.60;;;;;;;8.09;100.00;101171.78;5276101;28;20028;-67
2022/05/25 03:19:51;;;;;;;13.73;10.02;;;;;;;7.89;100.00;101173.00;5274758;28;20483;-67
2022/05/25 03:22:23;;;;;;;13.50;10.10;;;;;;;8.02;100.00;101168.66;5276166;28;20032;-67
2022/05/25 03:24:54;;;;;;;12.05;9.20;;;;;;;7.82;100.00;101175.16;5277198;28;20063;-67
2022/05/25 03:27:26;;;;;;;12.95;9.98;;;;;;;7.98;100.00;101170.66;5264012;28;20374;-67
2022/05/25 03:29:57;;;;;;;10.93;9.40;;;;;;;7.95;100.00;101168.16;5275906;28;20083;-67
2022/05/25 03:32:28;;;;;;;12.75;9.77;;;;;;;7.83;100.00;101164.44;5273409;28;20108;-67
2022/05/25 03:35:00;;;;;;;12.25;9.25;;;;;;;7.79;100.00;101170.88;5268776;28;20044;-67
2022/05/25 03:37:31;;;;;;;15.02;9.35;;;;;;;7.91;100.00;101173.75;5276287;28;20037;-67
2022/05/25 03:40:09;;;;;;;12.90;10.10;;;;;;;7.92;100.00;101179.00;5276578;28;20033;-67
2022/05/25 03:42:42;;;;;;;14.70;9.88;;;;;;;7.89;100.00;101184.47;5272603;28;20441;-67
2022/05/25 03:45:15;;;;;;;14.05;10.98;;;;;;;7.84;100.00;101195.38;5275151;28;20039;-67
2022/05/25 03:47:46;;;;;;;15.63;9.27;;;;;;;7.87;100.00;101191.69;5279719;28;20034;-67
2022/05/25 03:50:18;;;;;;;13.05;8.90;;;;;;;7.77;100.00;101191.38;5281026;28;20036;-67
2022/05/25 03:52:49;;;;;;;17.83;10.55;;;;;;;7.82;100.00;101193.75;5262333;28;20044;-67
2022/05/25 03:55:21;;;;;;;14.35;9.70;;;;;;;7.82;100.00;101191.09;5281470;28;20131;-67
2022/05/25 03:57:52;;;;;;;14.02;9.48;;;;;;;7.87;100.00;101199.66;5280006;28;20424;-67
2022/05/25 04:00:24;;;;;;;11.20;8.93;;;;;;;7.78;100.00;101201.03;5275488;28;20042;-67
2022/05/25 04:02:59;;;;;;;14.27;9.07;;;;;;;7.84;100.00;101198.03;5279689;28;20033;-67
2022/05/25 04:05:32;;;;;;;12.07;9.15;;;;;;;7.85;100.00;101201.56;5280003;28;20373;-67
2022/05/25 04:08:03;;;;;;;15.43;9.95;;;;;;;7.78;100.00;101206.34;5281074;28;20475;-67
2022/05/25 04:10:35;;;;;;;15.13;9.50;;;;;;;7.94;100.00;101211.63;5279509;28;20033;-66
2022/05/25 04:13:07;;;;;;;13.10;9.07;;;;;;;7.95;100.00;101213.31;5280248;28;20024;-66
2022/05/25 04:15:38;;;;;;;18.02;11.38;;;;;;;8.01;100.00;101210.28;5276196;28;20043;-66
2022/05/25 04:18:09;;;;;;;14.30;9.60;;;;;;;8.03;100.00;101207.56;5279626;28;20461;-66
2022/05/25 04:20:41;;;;;;;14.27;9.27;;;;;;;7.90;100.00;101211.88;5280532;28;20032;-66
2022/05/25 04:23:13;;;;;;;12.90;8.80;;;;;;;7.95;100.00;101210.66;5279517;28;20031;-66
2022/05/25 04:25:44;;;;;;;14.00;8.88;;;;;;;8.04;100.00;101210.13;5277300;28;20036;-66
2022/05/25 04:28:16;;;;;;;16.10;9.43;;;;;;;7.99;100.00;101214.00;5270788;28;20039;-66
2022/05/25 04:30:47;;;;;;;12.73;8.60;;;;;;;8.10;100.00;101219.53;5279721;28;20036;-66
2022/05/25 04:33:18;;;;;;;16.48;9.70;;;;;;;8.14;100.00;101218.41;5279070;28;20108;-66
2022/05/25 04:35:50;;;;;;;14.20;8.80;;;;;;;8.03;100.00;101210.22;5279584;28;20385;-66
2022/05/25 04:38:21;;;;;;;12.80;9.45;;;;;;;8.10;100.00;101222.19;5278542;28;20052;-66
2022/05/25 04:40:52;;;;;;;13.00;9.15;;;;;;;8.04;100.00;101215.44;5277296;28;20032;-66
2022/05/25 04:43:24;;;;;;;13.57;9.10;;;;;;;8.09;100.00;101231.09;5280337;28;20043;-66
2022/05/25 04:45:59;;;;;;;15.52;8.80;;;;;;;8.26;100.00;101224.75;5278958;28;20538;-66
2022/05/25 04:48:30;;;;;;;;;;;;;;;8.21;100.00;101226.88;5273182;28;20090;-66
2022/05/25 04:51:01;;;;;;;18.55;8.38;;;;;;;8.20;100.00;101220.69;5278024;28;20373;-66
2022/05/25 04:53:36;;;;;;;15.50;8.32;;;;;;;8.21;100.00;101226.88;5275231;28;20028;-66
2022/05/25 04:58:57;;;;;;;13.23;7.78;;;;;;;8.27;100.00;101231.81;5279117;28;20345;-66
2022/05/25 05:01:30;;;;;;;12.77;8.30;;;;;;;8.37;100.00;101230.28;5279268;28;20032;-66
2022/05/25 05:04:01;;;;;;;14.15;8.18;;;;;;;8.39;100.00;101233.72;5273954;28;20028;-66
2022/05/25 05:06:33;;;;;;;15.52;8.43;;;;;;;8.37;100.00;101238.28;5279471;28;20609;-66
2022/05/25 05:09:06;;;;;;;11.55;8.00;;;;;;;8.40;100.00;101234.59;5279190;28;20812;-66
2022/05/25 05:11:37;;;;;;;12.50;8.00;;;;;;;8.57;100.00;101236.22;5277119;28;20386;-66
2022/05/25 05:14:09;;;;;;;13.82;7.95;;;;;;;8.64;100.00;101234.91;5278383;28;20028;-66
2022/05/25 05:16:40;;;;;;;15.50;8.38;;;;;;;8.60;100.00;101239.53;5279137;28;20394;-66
2022/05/25 05:19:11;;;;;;;12.43;8.00;;;;;;;8.60;100.00;101231.56;5278119;28;20565;-66
2022/05/25 05:21:43;;;;;;;16.25;8.35;;;;;;;8.73;100.00;101236.13;5278824;28;20033;-66
2022/05/25 05:24:14;;;;;;;15.32;8.15;;;;;;;8.73;100.00;101223.69;5279056;28;20510;-66
2022/05/25 05:26:46;;;;;;;14.70;8.00;;;;;;;8.71;100.00;101222.09;5278710;28;20044;-66
2022/05/25 05:29:17;;;;;;;10.40;7.72;;;;;;;8.78;100.00;101223.38;5277891;28;20060;-66
2022/05/25 05:31:48;;;;;;;13.55;7.53;;;;;;;8.80;100.00;101222.34;5271021;28;20546;-66
2022/05/25 05:34:20;;;;;;;14.10;7.40;;;;;;;8.82;100.00;101216.91;5278569;28;20031;-66
2022/05/25 05:36:58;;;;;;;14.90;7.88;;;;;;;8.88;100.00;101229.84;5278145;28;20032;-66
2022/05/25 05:39:34;;;;;;;12.45;7.63;;;;;;;8.93;100.00;101219.75;5278198;28;20085;-66
2022/05/25 05:42:10;;;;;;;11.73;8.27;;;;;;;9.00;100.00;101220.22;5278770;28;20402;-66
2022/05/25 05:44:46;;;;;;;12.45;8.07;;;;;;;9.05;100.00;101217.25;5278128;28;20115;-66
2022/05/25 05:47:21;;;;;;;12.57;7.85;;;;;;;9.13;100.00;101209.66;5272273;28;20025;-66
2022/05/25 05:49:53;;;;;;;13.13;8.02;;;;;;;9.14;100.00;101224.66;5278235;28;20031;-66
2022/05/25 05:52:26;;;;;;;12.32;7.80;;;;;;;9.21;100.00;101220.66;5278854;28;20094;-66
2022/05/25 05:54:58;;;;;;;12.97;7.83;;;;;;;9.31;100.00;101210.25;5277869;28;20470;-66
2022/05/25 05:57:33;;;;;;;15.85;8.77;;;;;;;9.34;100.00;101210.91;5277669;28;20123;-65
2022/05/25 06:00:06;;;;;;;15.15;8.23;;;;;;;9.37;100.00;101220.50;5278819;28;20024;-66
2022/05/25 06:02:37;;;;;;;12.75;9.32;;;;;;;9.51;100.00;101225.78;5276670;28;20093;-66
2022/05/25 06:05:10;;;;;;;14.13;8.23;;;;;;;9.52;100.00;101221.31;5275724;28;20433;-66
2022/05/25 06:07:42;;;;;;;16.40;7.65;;;;;;;9.57;100.00;101225.38;5277976;28;20008;-66
2022/05/25 06:10:14;;;;;;;14.20;8.38;;;;;;;9.69;100.00;101237.03;5275959;28;20678;-66
2022/05/25 06:12:47;;;;;;;12.95;7.93;;;;;;;9.69;100.00;101239.69;5270689;28;20031;-66
2022/05/25 06:20:58;;;;;;;15.52;8.48;;;;;;;10.02;100.00;101244.56;5277305;28;20064;-66
2022/05/25 06:23:29;;;;;;;14.98;8.02;;;;;;;10.22;100.00;101253.03;5275433;28;20080;-66
2022/05/25 06:26:01;;;;;;;15.35;8.43;;;;;;;10.40;100.00;101253.59;5277701;28;20028;-66
2022/05/25 06:28:32;;;;;;;14.93;9.70;;;;;;;10.48;100.00;101258.41;5278095;28;20024;-66
2022/05/25 06:31:03;;;;;;;14.63;9.13;;;;;;;10.58;100.00;101256.78;5277716;28;20485;-66
2022/05/25 06:33:35;;;;;;;16.25;9.05;;;;;;;10.74;100.00;101264.59;5276296;28;20394;-66
2022/05/25 06:36:27;;;;;;;16.38;9.75;;;;;;;10.99;100.00;101259.22;5277243;28;20458;-66
2022/05/25 06:38:59;;;;;;;16.85;8.93;;;;;;;11.27;100.00;101257.19;5271767;28;20021;-66
2022/05/25 06:41:30;;;;;;;15.38;9.52;;;;;;;11.54;100.00;101262.38;5277588;28;20039;-66
2022/05/25 06:44:01;;;;;;;14.20;8.98;;;;;;;11.75;100.00;101267.94;5276936;28;20020;-66
2022/05/25 06:46:33;;;;;;;16.60;11.32;;;;;;;11.87;100.00;101270.63;5275431;28;20028;-66
2022/05/25 06:49:05;;;;;;;18.48;11.40;;;;;;;12.10;100.00;101274.25;5275440;28;20024;-66
2022/05/25 06:51:37;;;;;;;16.90;12.55;;;;;;;12.23;100.00;101290.25;5276148;28;20024;-66
2022/05/25 06:54:08;;;;;;;20.10;13.30;;;;;;;12.39;100.00;101279.22;5272314;28;20039;-66
2022/05/25 06:56:40;;;;;;;14.48;11.65;;;;;;;12.54;100.00;101278.00;5277298;28;20386;-66
2022/05/25 06:59:11;;;;;;;17.83;12.38;;;;;;;12.69;100.00;101287.53;5277641;28;20020;-66
2022/05/25 07:01:43;;;;;;;16.40;9.88;;;;;;;12.74;100.00;101287.19;5276211;28;20110;-66
2022/05/25 07:04:15;;;;;;;14.68;10.35;;;;;;;12.81;100.00;101292.88;5276866;28;20036;-66
2022/05/25 07:06:46;;;;;;;14.70;9.27;;;;;;;12.82;100.00;101297.28;5273586;28;20028;-66
2022/05/25 07:09:17;;;;;;;14.00;9.68;;;;;;;12.91;100.00;101302.78;5276992;28;20029;-66
2022/05/25 07:11:51;;;;;;;12.43;10.18;;;;;;;12.98;100.00;101289.72;5274317;28;20034;-66
2022/05/25 07:14:22;;;;;;;14.75;10.27;;;;;;;13.07;100.00;101299.72;5274890;28;20044;-66
2022/05/25 07:16:58;;;;;;;12.32;9.68;;;;;;;13.20;100.00;101302.28;5276153;28;20635;-66
2022/05/25 07:19:29;;;;;;;13.10;9.77;;;;;;;13.10;98.65;101318.22;5275318;28;20393;-66
2022/05/25 07:22:06;;;;;;;13.23;9.90;;;;;;;13.17;98.55;101315.06;5275270;28;20032;-66
2022/05/25 07:24:37;;;;;;;14.27;9.65;;;;;;;13.25;97.54;101315.28;5275603;28;20047;-66
2022/05/25 07:27:08;;;;;;;13.98;10.27;;;;;;;13.41;98.99;101313.13;5276535;28;20020;-66
2022/05/25 07:29:40;;;;;;;16.80;9.98;;;;;;;13.46;98.91;101318.09;5274333;28;20024;-66
2022/05/25 07:32:12;;;;;;;12.05;10.00;;;;;;;13.49;96.31;101315.19;5274220;28;20028;-66
2022/05/25 07:34:57;;;;;;;13.43;9.02;;;;;;;13.60;95.76;101315.16;5275181;28;20551;-66
2022/05/25 07:37:33;;;;;;;13.70;9.10;;;;;;;13.68;95.53;101318.06;5275510;28;20461;-66
2022/05/25 07:40:16;;;;;;;13.68;9.75;;;;;;;13.69;96.27;101313.53;5276899;28;20028;-66
2022/05/25 07:42:50;;;;;;;12.65;8.63;;;;;;;13.75;94.49;101318.41;5275394;28;20048;-66
2022/05/25 07:45:23;;;;;;;12.02;8.30;;;;;;;13.86;94.96;101328.25;5274009;28;20016;-66
2022/05/25 07:47:54;;;;;;;10.48;8.10;;;;;;;13.76;94.22;101320.09;5275355;28;20405;-66
2022/05/25 07:50:25;;;;;;;10.43;7.55;;;;;;;13.78;93.92;101320.81;5276239;28;20029;-66
2022/05/25 07:52:59;;;;;;;9.82;7.10;;;;;;;13.89;92.85;101323.47;5275655;28;20059;-66
2022/05/25 07:55:31;;;;;;;;;;;;;;;14.03;96.61;101322.31;5276955;28;20332;-66
2022/05/25 07:58:02;;;;;;;12.93;7.15;;;;;;;14.24;93.80;101316.97;5275656;28;19920;-66
2022/05/25 08:00:33;;;;;;;10.98;7.20;;;;;;;14.39;91.92;101322.88;5275654;28;20077;-66
2022/05/25 08:05:58;;;;;;;9.90;7.05;;;;;;;14.52;90.16;101330.75;5274002;28;20036;-66
2022/05/25 08:08:30;;;;;;;10.43;6.32;;;;;;;14.28;88.47;101326.47;5275038;28;20031;-66
2022/05/25 08:11:08;;;;;;;10.77;6.30;;;;;;;14.29;90.88;101330.88;5274055;28;20040;-67
2022/05/25 08:13:42;;;;;;;9.40;5.75;;;;;;;14.21;89.13;101328.00;5275503;28;20043;-66
2022/05/25 08:16:14;;;;;;;7.55;5.75;;;;;;;14.24;89.62;101335.75;5274999;28;20403;-66
2022/05/25 08:18:45;;;;;;;8.80;5.85;;;;;;;14.19;91.02;101332.63;5269985;28;20039;-67
2022/05/25 08:21:16;;;;;;;8.05;5.32;;;;;;;14.24;90.50;101326.88;5273289;28;20851;-66
2022/05/25 08:23:48;;;;;;;7.05;5.03;;;;;;;14.41;92.38;101325.44;5273640;28;20052;-66
2022/05/25 08:26:19;;;;;;;8.50;4.78;;;;;;;14.66;91.92;101327.75;5274199;28;20056;-67
2022/05/25 08:28:51;;;;;;;6.88;4.60;;;;;;;14.75;87.78;101326.13;5277803;28;20017;-67
2022/05/25 08:31:22;;;;;;;9.10;4.35;;;;;;;14.85;86.99;101331.53;5277918;28;20338;-67
2022/05/25 08:33:54;;;;;;;11.18;4.55;;;;;;;15.10;88.15;101319.50;5278141;28;20478;-67
2022/05/25 08:36:25;;;;;;;9.48;4.53;;;;;;;15.04;88.41;101323.56;5277938;28;20039;-67
2022/05/25 08:38:57;;;;;;;8.02;4.35;;;;;;;15.07;88.10;101322.44;5275849;28;20021;-66
2022/05/25 08:41:33;;;;;;;7.10;4.03;;;;;;;15.09;86.44;101318.66;5276389;28;20119;-67
2022/05/25 08:44:07;;;;;;;9.07;4.43;;;;;;;15.40;86.88;101325.84;5276781;28;20024;-66
2022/05/25 08:46:39;;;;;;;6.53;4.47;;;;;;;15.39;83.27;101319.59;5277209;28;20120;-66
2022/05/25 08:49:14;;;;;;;5.38;3.40;;;;;;;15.42;82.18;101316.63;5276532;28;20029;-66
2022/05/25 08:51:49;;;;;;;7.95;3.53;;;;;;;15.67;83.39;101319.81;5278468;28;20024;-67
2022/05/25 08:54:21;;;;;;;6.88;3.58;;;;;;;15.79;81.06;101323.25;5277633;28;20033;-66
2022/05/25 08:57:00;;;;;;;8.20;3.38;;;;;;;15.95;84.22;101309.22;5277778;28;20020;-67
2022/05/25 08:59:39;;;;;;;6.75;3.00;;;;;;;16.07;81.11;101310.81;5274273;28;20036;-66
2022/05/25 09:02:27;;;;;;;6.32;3.05;;;;;;;16.06;79.31;101319.88;5277561;28;20123;-67
2022/05/25 09:05:11;;;;;;;7.32;2.85;;;;;;;16.07;77.56;101314.34;5275842;28;20379;-67
2022/05/25 09:08:08;;;;;;;7.03;2.58;;;;;;;16.02;76.66;101326.53;5276260;28;20023;-67
2022/05/25 09:10:58;;;;;;;7.22;3.00;;;;;;;16.12;75.10;101316.59;5251846;28;20492;-67
2022/05/25 09:13:44;;;;;;;6.28;2.50;;;;;;;16.34;76.97;101319.97;5274625;28;20028;-67
2022/05/25 09:16:18;;;;;;;6.30;2.10;;;;;;;16.26;70.29;101324.25;5276215;28;20395;-67
2022/05/25 09:19:07;;;;;;;6.55;2.28;;;;;;;16.32;72.92;101325.53;5275698;28;20029;-67
2022/05/25 09:21:45;;;;;;;5.70;1.60;;;;;;;16.42;72.63;101331.75;5273623;28;20085;-67
2022/05/25 09:24:20;;;;;;;6.03;1.65;;;;;;;16.70;72.18;101333.69;5275095;28;20406;-67
2022/05/25 09:26:52;;;;;;;4.53;1.60;;;;;;;16.78;72.10;101336.50;5276831;28;20115;-67
2022/05/25 09:29:24;;;;;;;5.55;1.70;;;;;;;16.96;70.80;101333.94;5277310;28;20152;-67
2022/05/25 09:32:01;;;;;;;4.50;1.33;;;;;;;16.93;68.60;101336.91;5275905;28;20056;-67
2022/05/25 09:34:53;;;;;;;4.63;1.20;;;;;;;16.94;70.01;101336.78;5277163;28;20036;-67
2022/05/25 09:37:40;;;;;;;3.95;1.50;;;;;;;16.81;67.27;101337.06;5277437;28;20036;-67
2022/05/25 09:40:24;;;;;;;6.93;1.60;;;;;;;16.76;65.53;101351.97;5278152;28;20111;-66
2022/05/25 09:42:57;;;;;;;;;;;;;;;16.84;71.17;101346.75;5277656;28;20020;-68
2022/05/25 09:45:53;;;;;;;2.35;0.77;;;;;;;16.63;67.42;101347.75;5275024;28;19916;-68
2022/05/25 09:48:24;;;;;;;3.63;0.82;;;;;;;16.85;67.38;101340.34;5276485;28;20055;-67
2022/05/25 09:51:33;;;;;;;2.10;0.90;;;;;;;17.15;69.03;101344.63;5278429;28;20499;-66
2022/05/25 09:54:40;;;;;;;4.63;0.90;;;;;;;17.29;66.38;101346.00;5274244;28;20285;-68
2022/05/25 09:57:38;;;;;;;2.92;0.60;;;;;;;17.48;67.64;101339.66;5276744;28;20029;-67
2022/05/25 10:00:20;;;;;;;3.10;0.70;;;;;;;17.55;60.88;101356.09;5275686;28;20032;-67
2022/05/25 10:03:00;;;;;;;3.42;1.00;;;;;;;17.63;60.78;101346.25;5276982;28;20502;-68
2022/05/25 10:05:46;;;;;;;2.95;0.73;;;;;;;17.73;60.96;101362.38;5292766;28;20024;-68
2022/05/25 10:08:28;;;;;;;3.92;0.93;;;;;;;17.91;61.47;101362.44;5277950;28;20025;-68
2022/05/25 10:11:27;;;;;;;3.78;0.90;;;;;;;17.93;61.25;101346.94;5276438;28;20062;-68
2022/05/25 10:14:31;;;;;;;3.53;0.90;;;;;;;17.84;61.53;101347.84;5275793;28;20024;-68
2022/05/25 10:17:11;;;;;;;4.40;0.95;;;;;;;17.64;59.68;101352.47;5277675;28;20032;-68
2022/05/25 10:19:50;;;;;;;4.50;0.80;;;;;;;17.98;60.15;101343.75;5277876;28;20478;-68
2022/05/25 10:22:36;;;;;;;3.63;0.88;;;;;;;18.25;60.92;101350.09;5277399;28;20043;-70
2022/05/25 10:25:09;;;;;;;3.72;0.70;;;;;;;18.15;57.73;101353.72;5276561;28;20040;-68
2022/05/25 10:27:43;;;;;;;3.92;0.90;;;;;;;17.92;57.77;101349.78;5277212;28;20013;-68
2022/05/25 10:36:52;;;;;;;1.85;0.60;;;;;;;17.74;58.55;101342.50;5275542;28;20055;-68
2022/05/25 10:39:30;;;;;;;3.33;0.55;;;;;;;17.60;57.97;101345.69;5275609;28;20081;-68
2022/05/25 10:42:10;;;;;;;3.85;1.02;;;;;;;17.42;56.12;101343.78;5277731;28;20028;-68
2022/05/25 10:45:07;;;;;;;6.05;0.68;;;;;;;17.33;56.76;101341.16;5276863;28;20074;-67
2022/05/25 10:47:52;;;;;;;3.90;0.65;;;;;;;17.36;59.24;101335.47;5276349;28;20029;-68
2022/05/25 10:50:41;;;;;;;4.40;1.40;;;;;;;17.27;57.57;101336.38;5274841;28;20024;-68
2022/05/25 10:53:29;;;;;;;4.03;0.77;;;;;;;17.50;59.96;101340.34;5273595;28;20036;-68
2022/05/25 10:56:20;;;;;;;4.93;0.77;;;;;;;17.55;57.88;101339.91;5277332;28;20028;-68
2022/05/25 10:59:00;;;;;;;3.33;1.15;;;;;;;17.22;57.00;101339.50;5275673;28;20116;-68
2022/05/25 11:01:46;;;;;;;2.97;0.70;;;;;;;17.15;59.00;101336.56;5277801;28;20284;-68
2022/05/25 11:04:41;;;;;;;3.42;0.70;;;;;;;17.10;59.05;101340.69;5275693;28;20027;-68
2022/05/25 11:07:33;;;;;;;2.72;0.82;;;;;;;17.03;59.19;101338.59;5276482;28;20085;-68
2022/05/25 11:10:29;;;;;;;4.43;0.90;;;;;;;17.01;60.84;101345.97;5276404;28;20058;-68
2022/05/25 11:13:43;;;;;;;3.38;0.70;;;;;;;17.02;62.03;101344.13;5272840;28;20035;-68
2022/05/25 11:16:33;;;;;;;4.15;0.70;;;;;;;17.20;60.74;101347.75;5277767;28;20032;-68
2022/05/25 11:19:26;;;;;;;3.97;0.88;;;;;;;17.28;58.90;101347.00;5276566;28;20029;-68
2022/05/25 11:22:21;;;;;;;3.75;0.70;;;;;;;17.63;58.38;101331.91;5275160;28;20028;-67
2022/05/25 11:24:55;;;;;;;;;;;;;;;17.81;59.86;101319.28;5274941;28;20075;-68
2022/05/25 11:27:51;;;;;;;2.47;0.60;;;;;;;18.20;58.31;101327.09;5276701;28;19920;-68
2022/05/25 11:30:35;;;;;;;7.70;0.82;;;;;;;18.10;56.58;101326.34;5274903;28;20039;-68
2022/05/25 11:33:23;;;;;;;3.85;0.68;;;;;;;18.35;57.09;101315.72;5287983;28;20028;-68
2022/05/25 11:36:32;;;;;;;5.32;0.77;;;;;;;18.34;58.32;101323.00;5274415;28;20113;-68
2022/05/25 11:39:28;;;;;;;3.95;0.90;;;;;;;18.55;56.74;101317.25;5275916;28;20017;-69
2022/05/25 11:42:29;;;;;;;4.20;0.95;;;;;;;18.76;57.82;101319.56;5275454;28;20043;-68
2022/05/25 11:45:31;;;;;;;4.57;0.80;;;;;;;18.94;56.44;101318.69;5276581;28;20027;-68
2022/05/25 11:48:34;;;;;;;3.55;0.88;;;;;;;18.87;53.78;101306.81;5274173;28;20031;-69
2022/05/25 11:51:32;;;;;;;4.05;0.85;;;;;;;18.88;53.69;101316.63;5290537;28;20070;-68
2022/05/25 11:54:34;;;;;;;3.05;0.80;;;;;;;18.96;54.88;101309.41;5276273;28;20100;-69
2022/05/25 11:57:15;;;;;;;4.03;0.80;;;;;;;19.18;54.12;101321.53;5273394;28;20143;-69
2022/05/25 12:00:05;;;;;;;2.53;0.80;;;;;;;19.04;53.02;101316.69;5275567;28;20405;-68
2022/05/25 12:02:42;;;;;;;2.60;0.60;;;;;;;19.03;54.83;101315.03;5274238;28;20032;-69
2022/05/25 12:05:22;;;;;;;3.33;0.80;;;;;;;18.85;51.84;101316.94;5278461;28;20099;-68
2022/05/25 12:08:16;;;;;;;3.88;0.70;;;;;;;18.92;52.47;101318.00;5279905;28;20031;-68
2022/05/25 12:11:04;;;;;;;3.85;0.65;;;;;;;19.12;53.84;101327.59;5279653;28;20486;-68
2022/05/25 12:13:46;;;;;;;2.53;0.60;;;;;;;19.11;54.55;101304.25;5278267;28;20033;-69
2022/05/25 12:16:22;;;;;;;3.47;0.80;;;;;;;19.08;53.77;101311.81;5280581;28;20468;-68
2022/05/25 12:19:19;;;;;;;4.80;1.58;;;;;;;18.90;51.77;101309.22;5277453;28;20574;-68
2022/05/25 12:22:13;;;;;;;4.40;1.00;;;;;;;18.74;52.38;101321.59;5279528;28;20024;-68
2022/05/25 12:24:51;;;;;;;3.40;0.80;;;;;;;18.60;49.63;101319.44;5276079;28;20071;-68
2022/05/25 12:27:30;;;;;;;3.58;0.70;;;;;;;18.42;51.14;101322.19;5280303;28;20490;-68
2022/05/25 12:30:11;;;;;;;3.03;0.75;;;;;;;18.30;51.29;101320.78;5278686;28;20028;-67